sensor_id;sensor_type;location;lat;lon;timestamp;P1;durP1;ratioP1;P2;durP2;ratioP2
20076;SDS011;12348;42.710;23.378;2022-10-28T00:01:36;11.53;;;5.23;;
20076;SDS011;12348;42.710;23.378;2022-10-28T00:04:03;11.47;;;4.57;;
20076;SDS011;12348;42.710;23.378;2022-10-28T00:06:32;7.90;;;5.13;;
20076;SDS011;12348;42.710;23.378;2022-10-28T00:09:00;10.70;;;4.10;;
20076;SDS011;12348;42.710;23.378;2022-10-28T00:11:28;8.57;;;4.63;;
20076;SDS011;12348;42.710;23.378;2022-10-28T00:13:57;5.67;;;3.87;;
20076;SDS011;12348;42.710;23.378;2022-10-28T00:16:25;12.83;;;4.13;;
20076;SDS011;12348;42.710;23.378;2022-10-28T00:18:56;12.27;;;4.60;;
20076;SDS011;12348;42.710;23.378;2022-10-28T00:21:24;6.37;;;3.80;;
20076;SDS011;12348;42.710;23.378;2022-10-28T00:23:54;4.83;;;3.20;;
20076;SDS011;12348;42.710;23.378;2022-10-28T00:26:21;5.43;;;3.60;;
20076;SDS011;12348;42.710;23.378;2022-10-28T00:28:50;9.20;;;3.97;;
20076;SDS011;12348;42.710;23.378;2022-10-28T00:31:20;6.70;;;3.70;;
20076;SDS011;12348;42.710;23.378;2022-10-28T00:33:48;5.77;;;3.70;;
20076;SDS011;12348;42.710;23.378;2022-10-28T00:36:17;5.53;;;3.53;;
20076;SDS011;12348;42.710;23.378;2022-10-28T00:38:45;5.57;;;4.00;;
20076;SDS011;12348;42.710;23.378;2022-10-28T00:41:18;8.23;;;4.23;;
20076;SDS011;12348;42.710;23.378;2022-10-28T00:43:47;8.70;;;4.23;;
20076;SDS011;12348;42.710;23.378;2022-10-28T00:46:18;6.80;;;4.53;;
20076;SDS011;12348;42.710;23.378;2022-10-28T00:48:53;8.13;;;4.57;;
20076;SDS011;12348;42.710;23.378;2022-10-28T00:51:22;9.60;;;5.57;;
20076;SDS011;12348;42.710;23.378;2022-10-28T00:53:51;6.53;;;4.23;;
20076;SDS011;12348;42.710;23.378;2022-10-28T00:56:21;16.97;;;5.77;;
20076;SDS011;12348;42.710;23.378;2022-10-28T00:58:49;8.90;;;4.67;;
20076;SDS011;12348;42.710;23.378;2022-10-28T01:01:20;6.93;;;3.83;;
20076;SDS011;12348;42.710;23.378;2022-10-28T01:03:47;8.07;;;4.47;;
20076;SDS011;12348;42.710;23.378;2022-10-28T01:06:13;7.93;;;3.93;;
20076;SDS011;12348;42.710;23.378;2022-10-28T01:08:40;13.57;;;5.37;;
20076;SDS011;12348;42.710;23.378;2022-10-28T01:11:25;12.57;;;5.93;;
20076;SDS011;12348;42.710;23.378;2022-10-28T01:14:15;12.63;;;5.53;;
20076;SDS011;12348;42.710;23.378;2022-10-28T01:16:58;9.77;;;5.30;;
20076;SDS011;12348;42.710;23.378;2022-10-28T01:22:44;12.07;;;5.47;;
20076;SDS011;12348;42.710;23.378;2022-10-28T01:28:29;17.43;;;8.93;;
20076;SDS011;12348;42.710;23.378;2022-10-28T01:31:18;14.53;;;6.80;;
20076;SDS011;12348;42.710;23.378;2022-10-28T01:33:57;10.30;;;5.17;;
20076;SDS011;12348;42.710;23.378;2022-10-28T01:36:36;11.50;;;6.80;;
20076;SDS011;12348;42.710;23.378;2022-10-28T01:39:10;9.50;;;5.40;;
20076;SDS011;12348;42.710;23.378;2022-10-28T01:41:46;6.40;;;4.67;;
20076;SDS011;12348;42.710;23.378;2022-10-28T01:44:20;10.13;;;5.03;;
20076;SDS011;12348;42.710;23.378;2022-10-28T01:46:54;8.43;;;5.33;;
20076;SDS011;12348;42.710;23.378;2022-10-28T01:49:28;16.40;;;6.77;;
20076;SDS011;12348;42.710;23.378;2022-10-28T01:52:03;10.37;;;6.03;;
20076;SDS011;12348;42.710;23.378;2022-10-28T01:54:35;9.60;;;4.87;;
20076;SDS011;12348;42.710;23.378;2022-10-28T01:57:04;10.97;;;4.73;;
20076;SDS011;12348;42.710;23.378;2022-10-28T01:59:31;7.97;;;4.90;;
20076;SDS011;12348;42.710;23.378;2022-10-28T02:02:02;9.17;;;4.13;;
20076;SDS011;12348;42.710;23.378;2022-10-28T02:04:29;8.60;;;4.77;;
20076;SDS011;12348;42.710;23.378;2022-10-28T02:06:56;9.33;;;5.17;;
20076;SDS011;12348;42.710;23.378;2022-10-28T02:09:32;11.50;;;6.43;;
20076;SDS011;12348;42.710;23.378;2022-10-28T02:12:24;15.53;;;6.17;;
20076;SDS011;12348;42.710;23.378;2022-10-28T02:15:05;20.00;;;5.27;;
20076;SDS011;12348;42.710;23.378;2022-10-28T02:20:51;10.07;;;5.33;;
20076;SDS011;12348;42.710;23.378;2022-10-28T02:23:22;11.37;;;5.47;;
20076;SDS011;12348;42.710;23.378;2022-10-28T02:25:54;9.90;;;4.50;;
20076;SDS011;12348;42.710;23.378;2022-10-28T02:28:30;7.53;;;4.20;;
20076;SDS011;12348;42.710;23.378;2022-10-28T02:31:03;7.73;;;4.27;;
20076;SDS011;12348;42.710;23.378;2022-10-28T02:33:37;7.00;;;3.40;;
20076;SDS011;12348;42.710;23.378;2022-10-28T02:36:08;8.37;;;5.00;;
20076;SDS011;12348;42.710;23.378;2022-10-28T02:38:38;7.90;;;3.83;;
20076;SDS011;12348;42.710;23.378;2022-10-28T02:41:11;10.23;;;4.30;;
20076;SDS011;12348;42.710;23.378;2022-10-28T02:43:44;6.60;;;3.43;;
20076;SDS011;12348;42.710;23.378;2022-10-28T02:46:13;5.97;;;4.07;;
20076;SDS011;12348;42.710;23.378;2022-10-28T02:48:44;6.13;;;3.53;;
20076;SDS011;12348;42.710;23.378;2022-10-28T02:51:15;6.10;;;3.70;;
20076;SDS011;12348;42.710;23.378;2022-10-28T02:53:49;8.40;;;4.37;;
20076;SDS011;12348;42.710;23.378;2022-10-28T02:56:22;6.33;;;3.47;;
20076;SDS011;12348;42.710;23.378;2022-10-28T02:58:48;5.23;;;3.80;;
20076;SDS011;12348;42.710;23.378;2022-10-28T03:01:16;5.47;;;2.90;;
20076;SDS011;12348;42.710;23.378;2022-10-28T03:03:44;4.03;;;2.93;;
20076;SDS011;12348;42.710;23.378;2022-10-28T03:06:11;5.80;;;3.03;;
20076;SDS011;12348;42.710;23.378;2022-10-28T03:08:38;5.77;;;4.10;;
20076;SDS011;12348;42.710;23.378;2022-10-28T03:11:05;6.43;;;4.33;;
20076;SDS011;12348;42.710;23.378;2022-10-28T03:13:32;6.47;;;4.07;;
20076;SDS011;12348;42.710;23.378;2022-10-28T03:15:58;10.07;;;3.97;;
20076;SDS011;12348;42.710;23.378;2022-10-28T03:18:25;6.43;;;4.10;;
20076;SDS011;12348;42.710;23.378;2022-10-28T03:20:53;7.77;;;3.50;;
20076;SDS011;12348;42.710;23.378;2022-10-28T03:23:20;6.90;;;3.90;;
20076;SDS011;12348;42.710;23.378;2022-10-28T03:25:46;10.87;;;4.77;;
20076;SDS011;12348;42.710;23.378;2022-10-28T03:28:13;7.60;;;5.10;;
20076;SDS011;12348;42.710;23.378;2022-10-28T03:30:40;7.43;;;4.30;;
20076;SDS011;12348;42.710;23.378;2022-10-28T03:33:07;7.97;;;4.10;;
20076;SDS011;12348;42.710;23.378;2022-10-28T03:35:34;9.30;;;4.57;;
20076;SDS011;12348;42.710;23.378;2022-10-28T03:38:02;12.33;;;4.60;;
20076;SDS011;12348;42.710;23.378;2022-10-28T03:40:29;7.57;;;4.13;;
20076;SDS011;12348;42.710;23.378;2022-10-28T03:42:55;6.57;;;3.43;;
20076;SDS011;12348;42.710;23.378;2022-10-28T03:45:22;5.33;;;3.90;;
20076;SDS011;12348;42.710;23.378;2022-10-28T03:47:49;6.70;;;3.73;;
20076;SDS011;12348;42.710;23.378;2022-10-28T03:50:16;11.47;;;4.00;;
20076;SDS011;12348;42.710;23.378;2022-10-28T03:52:42;7.00;;;4.60;;
20076;SDS011;12348;42.710;23.378;2022-10-28T03:55:11;6.93;;;4.23;;
20076;SDS011;12348;42.710;23.378;2022-10-28T03:57:38;7.63;;;4.40;;
20076;SDS011;12348;42.710;23.378;2022-10-28T04:00:05;12.00;;;5.50;;
20076;SDS011;12348;42.710;23.378;2022-10-28T04:02:34;9.50;;;5.40;;
20076;SDS011;12348;42.710;23.378;2022-10-28T04:05:02;9.37;;;4.93;;
20076;SDS011;12348;42.710;23.378;2022-10-28T04:07:29;8.40;;;5.47;;
20076;SDS011;12348;42.710;23.378;2022-10-28T04:09:56;11.53;;;5.90;;
20076;SDS011;12348;42.710;23.378;2022-10-28T04:12:25;13.27;;;6.20;;
20076;SDS011;12348;42.710;23.378;2022-10-28T04:14:52;6.83;;;4.90;;
20076;SDS011;12348;42.710;23.378;2022-10-28T04:17:20;7.37;;;4.50;;
20076;SDS011;12348;42.710;23.378;2022-10-28T04:19:47;11.10;;;5.63;;
20076;SDS011;12348;42.710;23.378;2022-10-28T04:22:14;7.87;;;5.83;;
20076;SDS011;12348;42.710;23.378;2022-10-28T04:24:40;8.67;;;5.10;;
20076;SDS011;12348;42.710;23.378;2022-10-28T04:27:10;9.47;;;5.30;;
20076;SDS011;12348;42.710;23.378;2022-10-28T04:29:38;8.83;;;6.17;;
20076;SDS011;12348;42.710;23.378;2022-10-28T04:32:05;13.63;;;6.10;;
20076;SDS011;12348;42.710;23.378;2022-10-28T04:34:32;8.10;;;5.80;;
20076;SDS011;12348;42.710;23.378;2022-10-28T04:36:58;10.73;;;5.60;;
20076;SDS011;12348;42.710;23.378;2022-10-28T04:39:25;13.20;;;5.83;;
20076;SDS011;12348;42.710;23.378;2022-10-28T04:41:52;13.93;;;5.20;;
20076;SDS011;12348;42.710;23.378;2022-10-28T04:44:19;11.93;;;6.13;;
20076;SDS011;12348;42.710;23.378;2022-10-28T04:46:47;10.73;;;5.13;;
20076;SDS011;12348;42.710;23.378;2022-10-28T04:49:14;10.37;;;5.00;;
20076;SDS011;12348;42.710;23.378;2022-10-28T04:51:40;12.47;;;6.73;;
20076;SDS011;12348;42.710;23.378;2022-10-28T04:54:08;13.20;;;5.83;;
20076;SDS011;12348;42.710;23.378;2022-10-28T04:56:36;10.33;;;5.50;;
20076;SDS011;12348;42.710;23.378;2022-10-28T04:59:03;11.93;;;5.50;;
20076;SDS011;12348;42.710;23.378;2022-10-28T05:01:30;11.40;;;6.03;;
20076;SDS011;12348;42.710;23.378;2022-10-28T05:03:58;9.33;;;5.40;;
20076;SDS011;12348;42.710;23.378;2022-10-28T05:06:25;6.97;;;5.47;;
20076;SDS011;12348;42.710;23.378;2022-10-28T05:08:52;7.97;;;4.30;;
20076;SDS011;12348;42.710;23.378;2022-10-28T05:11:19;10.30;;;6.40;;
20076;SDS011;12348;42.710;23.378;2022-10-28T05:13:46;10.13;;;5.90;;
20076;SDS011;12348;42.710;23.378;2022-10-28T05:16:13;15.97;;;6.50;;
20076;SDS011;12348;42.710;23.378;2022-10-28T05:18:39;8.93;;;5.77;;
20076;SDS011;12348;42.710;23.378;2022-10-28T05:21:07;14.17;;;6.67;;
20076;SDS011;12348;42.710;23.378;2022-10-28T05:23:34;10.97;;;6.70;;
20076;SDS011;12348;42.710;23.378;2022-10-28T05:26:01;17.27;;;7.17;;
20076;SDS011;12348;42.710;23.378;2022-10-28T05:28:28;10.30;;;7.03;;
20076;SDS011;12348;42.710;23.378;2022-10-28T05:30:55;11.17;;;5.93;;
20076;SDS011;12348;42.710;23.378;2022-10-28T05:33:21;17.73;;;5.97;;
20076;SDS011;12348;42.710;23.378;2022-10-28T05:35:48;12.90;;;5.80;;
20076;SDS011;12348;42.710;23.378;2022-10-28T05:38:17;12.30;;;5.40;;
20076;SDS011;12348;42.710;23.378;2022-10-28T05:40:44;10.27;;;5.60;;
20076;SDS011;12348;42.710;23.378;2022-10-28T05:43:10;11.60;;;6.97;;
20076;SDS011;12348;42.710;23.378;2022-10-28T05:45:37;15.97;;;7.00;;
20076;SDS011;12348;42.710;23.378;2022-10-28T05:48:04;12.57;;;5.33;;
20076;SDS011;12348;42.710;23.378;2022-10-28T05:50:31;8.33;;;5.30;;
20076;SDS011;12348;42.710;23.378;2022-10-28T05:52:59;10.70;;;6.57;;
20076;SDS011;12348;42.710;23.378;2022-10-28T05:55:28;14.97;;;6.40;;
20076;SDS011;12348;42.710;23.378;2022-10-28T05:57:55;12.33;;;6.47;;
20076;SDS011;12348;42.710;23.378;2022-10-28T06:00:23;14.27;;;7.03;;
20076;SDS011;12348;42.710;23.378;2022-10-28T06:02:51;12.30;;;7.03;;
20076;SDS011;12348;42.710;23.378;2022-10-28T06:05:18;17.77;;;7.00;;
20076;SDS011;12348;42.710;23.378;2022-10-28T06:07:45;18.40;;;7.67;;
20076;SDS011;12348;42.710;23.378;2022-10-28T06:10:12;12.53;;;6.17;;
20076;SDS011;12348;42.710;23.378;2022-10-28T06:12:40;8.73;;;5.83;;
20076;SDS011;12348;42.710;23.378;2022-10-28T06:15:07;15.33;;;6.77;;
20076;SDS011;12348;42.710;23.378;2022-10-28T06:17:34;10.40;;;6.70;;
20076;SDS011;12348;42.710;23.378;2022-10-28T06:20:02;11.80;;;6.13;;
20076;SDS011;12348;42.710;23.378;2022-10-28T06:22:31;10.90;;;6.43;;
20076;SDS011;12348;42.710;23.378;2022-10-28T06:24:58;14.17;;;6.83;;
20076;SDS011;12348;42.710;23.378;2022-10-28T06:27:24;10.90;;;6.30;;
20076;SDS011;12348;42.710;23.378;2022-10-28T06:29:52;14.30;;;7.37;;
20076;SDS011;12348;42.710;23.378;2022-10-28T06:32:19;14.13;;;6.37;;
20076;SDS011;12348;42.710;23.378;2022-10-28T06:34:46;10.33;;;6.70;;
20076;SDS011;12348;42.710;23.378;2022-10-28T06:37:12;12.33;;;6.80;;
20076;SDS011;12348;42.710;23.378;2022-10-28T06:39:39;9.23;;;5.87;;
20076;SDS011;12348;42.710;23.378;2022-10-28T06:42:07;11.77;;;6.73;;
20076;SDS011;12348;42.710;23.378;2022-10-28T06:44:34;11.97;;;7.10;;
20076;SDS011;12348;42.710;23.378;2022-10-28T06:47:02;10.30;;;7.13;;
20076;SDS011;12348;42.710;23.378;2022-10-28T06:49:29;12.37;;;6.80;;
20076;SDS011;12348;42.710;23.378;2022-10-28T06:51:56;12.20;;;7.70;;
20076;SDS011;12348;42.710;23.378;2022-10-28T06:54:36;7.87;;;6.07;;
20076;SDS011;12348;42.710;23.378;2022-10-28T06:57:08;11.97;;;6.17;;
20076;SDS011;12348;42.710;23.378;2022-10-28T06:59:38;9.97;;;5.90;;
20076;SDS011;12348;42.710;23.378;2022-10-28T07:02:09;11.67;;;5.40;;
20076;SDS011;12348;42.710;23.378;2022-10-28T07:04:36;9.47;;;5.27;;
20076;SDS011;12348;42.710;23.378;2022-10-28T07:07:03;8.30;;;4.80;;
20076;SDS011;12348;42.710;23.378;2022-10-28T07:09:30;7.73;;;4.10;;
20076;SDS011;12348;42.710;23.378;2022-10-28T07:12:00;12.00;;;4.13;;
20076;SDS011;12348;42.710;23.378;2022-10-28T07:14:27;10.43;;;4.77;;
20076;SDS011;12348;42.710;23.378;2022-10-28T07:16:54;6.50;;;4.13;;
20076;SDS011;12348;42.710;23.378;2022-10-28T07:19:22;9.43;;;5.07;;
20076;SDS011;12348;42.710;23.378;2022-10-28T07:21:48;7.30;;;4.47;;
20076;SDS011;12348;42.710;23.378;2022-10-28T07:24:15;7.67;;;4.97;;
20076;SDS011;12348;42.710;23.378;2022-10-28T07:26:42;11.57;;;5.47;;
20076;SDS011;12348;42.710;23.378;2022-10-28T07:29:09;10.53;;;5.13;;
20076;SDS011;12348;42.710;23.378;2022-10-28T07:31:35;8.53;;;4.93;;
20076;SDS011;12348;42.710;23.378;2022-10-28T07:34:02;7.60;;;4.73;;
20076;SDS011;12348;42.710;23.378;2022-10-28T07:36:30;11.20;;;6.47;;
20076;SDS011;12348;42.710;23.378;2022-10-28T07:38:57;9.03;;;5.50;;
20076;SDS011;12348;42.710;23.378;2022-10-28T07:41:24;6.43;;;4.63;;
20076;SDS011;12348;42.710;23.378;2022-10-28T07:43:51;11.70;;;5.07;;
20076;SDS011;12348;42.710;23.378;2022-10-28T07:46:18;12.60;;;5.77;;
20076;SDS011;12348;42.710;23.378;2022-10-28T07:48:45;10.10;;;6.80;;
20076;SDS011;12348;42.710;23.378;2022-10-28T07:51:12;9.87;;;6.43;;
20076;SDS011;12348;42.710;23.378;2022-10-28T07:53:41;9.37;;;5.50;;
20076;SDS011;12348;42.710;23.378;2022-10-28T07:56:09;8.53;;;5.43;;
20076;SDS011;12348;42.710;23.378;2022-10-28T07:58:38;9.40;;;5.50;;
20076;SDS011;12348;42.710;23.378;2022-10-28T08:01:06;12.40;;;5.73;;
20076;SDS011;12348;42.710;23.378;2022-10-28T08:03:34;11.40;;;6.47;;
20076;SDS011;12348;42.710;23.378;2022-10-28T08:06:01;7.30;;;4.50;;
20076;SDS011;12348;42.710;23.378;2022-10-28T08:08:28;7.87;;;5.17;;
20076;SDS011;12348;42.710;23.378;2022-10-28T08:10:57;10.87;;;5.00;;
20076;SDS011;12348;42.710;23.378;2022-10-28T08:13:24;8.50;;;4.87;;
20076;SDS011;12348;42.710;23.378;2022-10-28T08:15:50;17.50;;;9.67;;
20076;SDS011;12348;42.710;23.378;2022-10-28T08:18:18;12.73;;;8.53;;
20076;SDS011;12348;42.710;23.378;2022-10-28T08:20:46;15.17;;;8.93;;
20076;SDS011;12348;42.710;23.378;2022-10-28T08:23:13;7.83;;;5.10;;
20076;SDS011;12348;42.710;23.378;2022-10-28T08:25:46;7.20;;;4.93;;
20076;SDS011;12348;42.710;23.378;2022-10-28T08:28:15;8.07;;;5.50;;
20076;SDS011;12348;42.710;23.378;2022-10-28T08:30:42;11.67;;;5.73;;
20076;SDS011;12348;42.710;23.378;2022-10-28T08:33:09;10.83;;;5.47;;
20076;SDS011;12348;42.710;23.378;2022-10-28T08:35:36;12.03;;;6.20;;
20076;SDS011;12348;42.710;23.378;2022-10-28T08:38:03;11.23;;;7.17;;
20076;SDS011;12348;42.710;23.378;2022-10-28T08:40:31;10.77;;;5.93;;
20076;SDS011;12348;42.710;23.378;2022-10-28T08:43:07;13.80;;;8.07;;
20076;SDS011;12348;42.710;23.378;2022-10-28T08:45:46;11.90;;;6.87;;
20076;SDS011;12348;42.710;23.378;2022-10-28T08:48:20;18.23;;;10.70;;
20076;SDS011;12348;42.710;23.378;2022-10-28T08:50:55;13.67;;;7.37;;
20076;SDS011;12348;42.710;23.378;2022-10-28T08:53:29;8.73;;;5.20;;
20076;SDS011;12348;42.710;23.378;2022-10-28T08:56:03;10.13;;;5.70;;
20076;SDS011;12348;42.710;23.378;2022-10-28T08:58:41;14.40;;;7.00;;
20076;SDS011;12348;42.710;23.378;2022-10-28T09:01:15;9.03;;;5.27;;
20076;SDS011;12348;42.710;23.378;2022-10-28T09:03:47;10.53;;;5.50;;
20076;SDS011;12348;42.710;23.378;2022-10-28T09:06:32;12.20;;;5.63;;
20076;SDS011;12348;42.710;23.378;2022-10-28T09:08:59;9.80;;;5.37;;
20076;SDS011;12348;42.710;23.378;2022-10-28T09:11:37;7.20;;;5.27;;
20076;SDS011;12348;42.710;23.378;2022-10-28T09:14:26;8.37;;;5.10;;
20076;SDS011;12348;42.710;23.378;2022-10-28T09:17:06;9.97;;;4.77;;
20076;SDS011;12348;42.710;23.378;2022-10-28T09:19:44;7.67;;;4.53;;
20076;SDS011;12348;42.710;23.378;2022-10-28T09:22:23;7.43;;;4.03;;
20076;SDS011;12348;42.710;23.378;2022-10-28T09:24:54;7.13;;;3.90;;
20076;SDS011;12348;42.710;23.378;2022-10-28T09:27:35;7.47;;;3.83;;
20076;SDS011;12348;42.710;23.378;2022-10-28T09:30:17;8.50;;;5.57;;
20076;SDS011;12348;42.710;23.378;2022-10-28T09:32:57;6.07;;;4.50;;
20076;SDS011;12348;42.710;23.378;2022-10-28T09:35:35;12.97;;;7.13;;
20076;SDS011;12348;42.710;23.378;2022-10-28T09:38:10;7.53;;;4.17;;
20076;SDS011;12348;42.710;23.378;2022-10-28T09:40:47;6.50;;;4.50;;
20076;SDS011;12348;42.710;23.378;2022-10-28T09:43:18;8.97;;;3.77;;
20076;SDS011;12348;42.710;23.378;2022-10-28T09:45:51;6.97;;;4.30;;
20076;SDS011;12348;42.710;23.378;2022-10-28T09:48:24;8.20;;;4.93;;
20076;SDS011;12348;42.710;23.378;2022-10-28T09:50:54;8.70;;;4.43;;
20076;SDS011;12348;42.710;23.378;2022-10-28T09:53:25;6.20;;;4.03;;
20076;SDS011;12348;42.710;23.378;2022-10-28T09:55:59;6.70;;;3.53;;
20076;SDS011;12348;42.710;23.378;2022-10-28T09:58:26;7.10;;;3.80;;
20076;SDS011;12348;42.710;23.378;2022-10-28T10:00:53;7.03;;;3.57;;
20076;SDS011;12348;42.710;23.378;2022-10-28T10:03:20;6.30;;;4.10;;
20076;SDS011;12348;42.710;23.378;2022-10-28T10:05:48;7.33;;;3.97;;
20076;SDS011;12348;42.710;23.378;2022-10-28T10:08:19;17.73;;;6.77;;
20076;SDS011;12348;42.710;23.378;2022-10-28T10:10:48;11.20;;;4.53;;
20076;SDS011;12348;42.710;23.378;2022-10-28T10:13:19;6.80;;;4.57;;
20076;SDS011;12348;42.710;23.378;2022-10-28T10:15:50;9.17;;;3.60;;
20076;SDS011;12348;42.710;23.378;2022-10-28T10:18:20;12.53;;;6.67;;
20076;SDS011;12348;42.710;23.378;2022-10-28T10:20:53;7.37;;;4.33;;
20076;SDS011;12348;42.710;23.378;2022-10-28T10:23:25;7.37;;;3.70;;
20076;SDS011;12348;42.710;23.378;2022-10-28T10:25:56;10.00;;;4.13;;
20076;SDS011;12348;42.710;23.378;2022-10-28T10:28:25;12.03;;;3.93;;
20076;SDS011;12348;42.710;23.378;2022-10-28T10:30:54;5.80;;;3.40;;
20076;SDS011;12348;42.710;23.378;2022-10-28T10:33:23;7.20;;;2.80;;
20076;SDS011;12348;42.710;23.378;2022-10-28T10:35:55;3.37;;;2.40;;
20076;SDS011;12348;42.710;23.378;2022-10-28T10:38:26;3.83;;;2.77;;
20076;SDS011;12348;42.710;23.378;2022-10-28T10:40:54;5.03;;;2.90;;
20076;SDS011;12348;42.710;23.378;2022-10-28T10:43:22;4.17;;;2.80;;
20076;SDS011;12348;42.710;23.378;2022-10-28T10:45:58;4.87;;;3.07;;
20076;SDS011;12348;42.710;23.378;2022-10-28T10:48:26;6.97;;;4.23;;
20076;SDS011;12348;42.710;23.378;2022-10-28T10:50:53;4.10;;;2.80;;
20076;SDS011;12348;42.710;23.378;2022-10-28T10:53:23;7.10;;;4.53;;
20076;SDS011;12348;42.710;23.378;2022-10-28T10:55:52;4.60;;;3.10;;
20076;SDS011;12348;42.710;23.378;2022-10-28T10:58:23;5.10;;;2.63;;
20076;SDS011;12348;42.710;23.378;2022-10-28T11:00:53;3.57;;;2.10;;
20076;SDS011;12348;42.710;23.378;2022-10-28T11:03:22;4.50;;;3.03;;
20076;SDS011;12348;42.710;23.378;2022-10-28T11:05:53;3.33;;;2.20;;
20076;SDS011;12348;42.710;23.378;2022-10-28T11:08:36;3.23;;;1.67;;
20076;SDS011;12348;42.710;23.378;2022-10-28T11:11:05;3.37;;;2.00;;
20076;SDS011;12348;42.710;23.378;2022-10-28T11:13:36;2.73;;;1.83;;
20076;SDS011;12348;42.710;23.378;2022-10-28T11:16:03;2.63;;;2.17;;
20076;SDS011;12348;42.710;23.378;2022-10-28T11:18:39;2.50;;;2.10;;
20076;SDS011;12348;42.710;23.378;2022-10-28T11:21:12;2.33;;;1.70;;
20076;SDS011;12348;42.710;23.378;2022-10-28T11:23:53;2.73;;;2.10;;
20076;SDS011;12348;42.710;23.378;2022-10-28T11:26:30;3.33;;;1.60;;
20076;SDS011;12348;42.710;23.378;2022-10-28T11:29:07;4.67;;;3.10;;
20076;SDS011;12348;42.710;23.378;2022-10-28T11:31:45;2.77;;;1.90;;
20076;SDS011;12348;42.710;23.378;2022-10-28T11:34:28;7.23;;;2.10;;
20076;SDS011;12348;42.710;23.378;2022-10-28T11:37:16;3.70;;;2.10;;
20076;SDS011;12348;42.710;23.378;2022-10-28T11:39:57;4.03;;;2.13;;
20076;SDS011;12348;42.710;23.378;2022-10-28T11:42:35;2.83;;;1.90;;
20076;SDS011;12348;42.710;23.378;2022-10-28T11:45:14;2.60;;;2.20;;
20076;SDS011;12348;42.710;23.378;2022-10-28T11:47:51;3.37;;;2.43;;
20076;SDS011;12348;42.710;23.378;2022-10-28T11:50:33;4.33;;;2.73;;
20076;SDS011;12348;42.710;23.378;2022-10-28T11:56:11;3.10;;;2.03;;
20076;SDS011;12348;42.710;23.378;2022-10-28T11:58:48;3.00;;;2.00;;
20076;SDS011;12348;42.710;23.378;2022-10-28T12:01:34;2.50;;;1.73;;
20076;SDS011;12348;42.710;23.378;2022-10-28T12:04:13;5.67;;;2.13;;
20076;SDS011;12348;42.710;23.378;2022-10-28T12:07:08;3.13;;;1.70;;
20076;SDS011;12348;42.710;23.378;2022-10-28T12:09:59;6.20;;;2.47;;
20076;SDS011;12348;42.710;23.378;2022-10-28T12:12:37;2.40;;;1.73;;
20076;SDS011;12348;42.710;23.378;2022-10-28T12:15:13;2.13;;;1.80;;
20076;SDS011;12348;42.710;23.378;2022-10-28T12:17:49;10.47;;;3.50;;
20076;SDS011;12348;42.710;23.378;2022-10-28T12:20:25;6.63;;;3.50;;
20076;SDS011;12348;42.710;23.378;2022-10-28T12:22:59;2.13;;;1.77;;
20076;SDS011;12348;42.710;23.378;2022-10-28T12:25:32;8.57;;;2.70;;
20076;SDS011;12348;42.710;23.378;2022-10-28T12:28:04;4.13;;;2.20;;
20076;SDS011;12348;42.710;23.378;2022-10-28T12:30:47;3.40;;;2.80;;
20076;SDS011;12348;42.710;23.378;2022-10-28T12:33:19;8.37;;;2.37;;
20076;SDS011;12348;42.710;23.378;2022-10-28T12:35:50;2.83;;;2.07;;
20076;SDS011;12348;42.710;23.378;2022-10-28T12:38:22;4.13;;;2.33;;
20076;SDS011;12348;42.710;23.378;2022-10-28T12:40:58;8.40;;;2.83;;
20076;SDS011;12348;42.710;23.378;2022-10-28T12:43:32;4.00;;;2.90;;
20076;SDS011;12348;42.710;23.378;2022-10-28T12:46:06;5.17;;;2.00;;
20076;SDS011;12348;42.710;23.378;2022-10-28T12:48:43;3.03;;;2.50;;
20076;SDS011;12348;42.710;23.378;2022-10-28T12:51:16;3.23;;;2.20;;
20076;SDS011;12348;42.710;23.378;2022-10-28T12:53:51;4.77;;;2.90;;
20076;SDS011;12348;42.710;23.378;2022-10-28T12:56:27;3.33;;;2.37;;
20076;SDS011;12348;42.710;23.378;2022-10-28T12:58:59;3.63;;;1.90;;
20076;SDS011;12348;42.710;23.378;2022-10-28T13:01:35;3.17;;;2.13;;
20076;SDS011;12348;42.710;23.378;2022-10-28T13:04:03;2.87;;;2.10;;
20076;SDS011;12348;42.710;23.378;2022-10-28T13:09:41;7.30;;;2.20;;
20076;SDS011;12348;42.710;23.378;2022-10-28T13:15:44;3.33;;;2.40;;
20076;SDS011;12348;42.710;23.378;2022-10-28T13:21:38;2.87;;;2.23;;
20076;SDS011;12348;42.710;23.378;2022-10-28T13:24:25;3.17;;;2.17;;
20076;SDS011;12348;42.710;23.378;2022-10-28T13:26:59;2.50;;;1.67;;
20076;SDS011;12348;42.710;23.378;2022-10-28T13:29:31;4.43;;;2.40;;
20076;SDS011;12348;42.710;23.378;2022-10-28T13:32:00;4.00;;;2.37;;
20076;SDS011;12348;42.710;23.378;2022-10-28T13:34:32;2.83;;;2.10;;
20076;SDS011;12348;42.710;23.378;2022-10-28T13:37:14;2.47;;;1.70;;
20076;SDS011;12348;42.710;23.378;2022-10-28T13:39:46;3.17;;;2.20;;
20076;SDS011;12348;42.710;23.378;2022-10-28T13:42:30;3.30;;;2.30;;
20076;SDS011;12348;42.710;23.378;2022-10-28T13:48:31;7.63;;;2.20;;
20076;SDS011;12348;42.710;23.378;2022-10-28T13:54:22;3.87;;;1.73;;
20076;SDS011;12348;42.710;23.378;2022-10-28T13:56:51;5.47;;;2.77;;
20076;SDS011;12348;42.710;23.378;2022-10-28T13:59:21;2.67;;;1.80;;
20076;SDS011;12348;42.710;23.378;2022-10-28T14:01:54;2.37;;;1.70;;
20076;SDS011;12348;42.710;23.378;2022-10-28T14:04:29;2.73;;;1.77;;
20076;SDS011;12348;42.710;23.378;2022-10-28T14:07:16;5.10;;;2.03;;
20076;SDS011;12348;42.710;23.378;2022-10-28T14:09:47;6.70;;;2.57;;
20076;SDS011;12348;42.710;23.378;2022-10-28T14:12:26;2.97;;;2.23;;
20076;SDS011;12348;42.710;23.378;2022-10-28T14:15:05;6.13;;;2.93;;
20076;SDS011;12348;42.710;23.378;2022-10-28T14:17:46;8.80;;;4.33;;
20076;SDS011;12348;42.710;23.378;2022-10-28T14:20:27;5.67;;;2.60;;
20076;SDS011;12348;42.710;23.378;2022-10-28T14:26:09;10.27;;;5.80;;
20076;SDS011;12348;42.710;23.378;2022-10-28T14:28:49;10.53;;;5.33;;
20076;SDS011;12348;42.710;23.378;2022-10-28T14:31:37;2.80;;;2.20;;
20076;SDS011;12348;42.710;23.378;2022-10-28T14:37:16;2.77;;;1.90;;
20076;SDS011;12348;42.710;23.378;2022-10-28T14:40:13;2.43;;;1.90;;
20076;SDS011;12348;42.710;23.378;2022-10-28T14:42:56;5.77;;;2.83;;
20076;SDS011;12348;42.710;23.378;2022-10-28T14:45:33;6.80;;;3.00;;
20076;SDS011;12348;42.710;23.378;2022-10-28T14:48:13;9.27;;;3.10;;
20076;SDS011;12348;42.710;23.378;2022-10-28T14:50:54;4.03;;;2.20;;
20076;SDS011;12348;42.710;23.378;2022-10-28T14:53:25;4.90;;;2.50;;
20076;SDS011;12348;42.710;23.378;2022-10-28T14:55:56;1.90;;;1.70;;
20076;SDS011;12348;42.710;23.378;2022-10-28T14:58:27;2.67;;;2.17;;
20076;SDS011;12348;42.710;23.378;2022-10-28T15:01:04;4.30;;;2.10;;
20076;SDS011;12348;42.710;23.378;2022-10-28T15:03:47;5.77;;;2.43;;
20076;SDS011;12348;42.710;23.378;2022-10-28T15:06:26;6.43;;;2.40;;
20076;SDS011;12348;42.710;23.378;2022-10-28T15:09:01;5.83;;;2.90;;
20076;SDS011;12348;42.710;23.378;2022-10-28T15:11:30;7.53;;;3.30;;
20076;SDS011;12348;42.710;23.378;2022-10-28T15:13:59;10.67;;;4.53;;
20076;SDS011;12348;42.710;23.378;2022-10-28T15:16:44;7.67;;;3.93;;
20076;SDS011;12348;42.710;23.378;2022-10-28T15:19:13;10.17;;;6.77;;
20076;SDS011;12348;42.710;23.378;2022-10-28T15:21:42;13.80;;;6.93;;
20076;SDS011;12348;42.710;23.378;2022-10-28T15:24:12;12.00;;;6.50;;
20076;SDS011;12348;42.710;23.378;2022-10-28T15:26:39;24.80;;;5.07;;
20076;SDS011;12348;42.710;23.378;2022-10-28T15:29:07;8.77;;;4.80;;
20076;SDS011;12348;42.710;23.378;2022-10-28T15:34:34;4.40;;;1.63;;